Time;durP1;ratioP1;P1;durP2;ratioP2;P2;SDS_P1;SDS_P2;PMS_P1;PMS_P2;Temp;Humidity;BMP_temperature;BMP_pressure;BME280_temperature;BME280_humidity;BME280_pressure;Samples;Min_cycle;Max_cycle;Signal;HPM_P1;HPM_P2
2022/05/03 00:02:15;;;;;;;2.65;1.77;;;;;;;8.41;82.97;94440.69;5021892;28;20252;-75
2022/05/03 00:04:52;;;;;;;3.30;2.05;;;;;;;8.34;84.57;94440.38;5034455;28;20208;-75
2022/05/03 00:07:25;;;;;;;1.08;0.98;;;;;;;8.37;82.66;94439.75;5033911;28;20687;-75
2022/05/03 00:10:03;;;;;;;2.08;1.85;;;;;;;8.43;84.39;94425.00;5034414;28;20603;-76
2022/05/03 00:12:38;;;;;;;3.10;1.90;;;;;;;8.43;83.75;94427.69;5033929;28;20287;-75
2022/05/03 00:15:07;;;;;;;2.28;1.60;;;;;;;8.40;83.53;94433.72;5033595;28;20185;-75
2022/05/03 00:17:35;;;;;;;1.25;1.08;;;;;;;8.38;83.28;94438.63;5033685;28;20200;-76
2022/05/03 00:20:03;;;;;;;1.95;1.45;;;;;;;8.37;83.38;94434.34;5034314;28;20204;-74
2022/05/03 00:22:33;;;;;;;5.68;2.88;;;;;;;8.43;83.92;94426.88;5033841;28;20244;-75
2022/05/03 00:25:00;;;;;;;3.70;1.83;;;;;;;8.43;84.42;94435.78;5036097;28;20225;-75
2022/05/03 00:27:29;;;;;;;1.25;1.15;;;;;;;8.33;84.35;94425.31;5033987;28;20269;-75
2022/05/03 00:29:58;;;;;;;2.55;1.85;;;;;;;8.32;83.88;94442.63;5033924;28;20201;-76
2022/05/03 00:32:26;;;;;;;2.97;2.10;;;;;;;8.38;83.20;94430.53;5033400;28;20204;-76
2022/05/03 00:34:54;;;;;;;2.22;1.52;;;;;;;8.41;84.17;94440.69;5034020;28;20247;-75
2022/05/03 00:37:21;;;;;;;2.28;1.85;;;;;;;8.35;84.12;94439.25;5033451;28;20204;-75
2022/05/03 00:39:49;;;;;;;2.65;1.83;;;;;;;8.35;84.10;94433.88;5033835;28;20289;-75
2022/05/03 00:42:20;;;;;;;1.13;1.02;;;;;;;8.36;83.65;94437.34;5033478;28;20214;-76
2022/05/03 00:45:01;;;;;;;1.40;1.23;;;;;;;8.34;83.33;94440.38;5032261;28;20236;-75
2022/05/03 00:47:40;;;;;;;2.78;1.75;;;;;;;8.37;82.83;94439.75;5021603;28;20567;-75
2022/05/03 00:50:10;;;;;;;5.13;2.00;;;;;;;8.33;82.48;94436.13;5033459;28;20200;-76
2022/05/03 00:52:44;;;;;;;4.45;2.55;;;;;;;8.36;84.03;94438.16;5033120;28;20667;-76
2022/05/03 00:55:38;;;;;;;2.75;1.73;;;;;;;8.28;84.00;94430.84;5033233;28;20224;-75
2022/05/03 00:58:22;;;;;;;2.10;1.90;;;;;;;8.31;84.58;94435.59;5033469;28;20204;-76
2022/05/03 01:00:56;;;;;;;1.23;1.13;;;;;;;8.33;82.75;94433.41;5033076;28;20200;-74
2022/05/03 01:03:30;;;;;;;1.88;1.27;;;;;;;8.27;83.91;94429.25;5033152;28;20239;-75
2022/05/03 01:06:17;;;;;;;8.68;2.17;;;;;;;8.25;83.87;94428.75;5033387;28;20196;-75
2022/05/03 01:09:03;;;;;;;2.03;1.42;;;;;;;8.23;84.33;94427.50;5032767;28;20390;-74
2022/05/03 01:11:38;;;;;;;3.15;2.05;;;;;;;8.16;84.58;94425.28;5033031;28;20612;-75
2022/05/03 01:14:18;;;;;;;2.63;1.88;;;;;;;8.08;84.40;94420.66;5032992;28;20196;-75
2022/05/03 01:16:53;;;;;;;2.08;1.48;;;;;;;8.17;84.72;94418.78;5032410;28;20192;-75
2022/05/03 01:19:48;;;;;;;1.13;1.05;;;;;;;8.11;84.74;94418.13;5033199;28;20257;-75
2022/05/03 01:22:32;;;;;;;3.33;2.22;;;;;;;8.09;85.51;94412.25;5030932;28;20247;-75
2022/05/03 01:25:23;;;;;;;1.95;1.35;;;;;;;8.09;84.83;94427.63;5033989;28;20219;-77
2022/05/03 01:28:04;;;;;;;3.45;2.05;;;;;;;8.16;84.76;94414.47;5019565;28;20216;-76
2022/05/03 01:30:36;;;;;;;0.88;0.50;;;;;;;8.20;83.40;94412.72;5032927;28;20334;-75
2022/05/03 01:33:09;;;;;;;1.13;1.02;;;;;;;8.16;83.42;94411.78;5032352;28;20193;-75
2022/05/03 01:35:40;;;;;;;4.13;1.98;;;;;;;8.19;84.34;94408.47;5032722;28;20217;-75
2022/05/03 01:38:17;;;;;;;3.00;2.08;;;;;;;8.01;85.17;94404.16;5032648;28;20566;-75
2022/05/03 01:41:07;;;;;;;1.60;1.42;;;;;;;7.98;84.67;94410.97;5032300;28;20195;-76
2022/05/03 01:43:53;;;;;;;2.85;1.67;;;;;;;7.98;85.17;94404.78;5032117;28;20244;-75
2022/05/03 01:46:25;;;;;;;3.17;2.17;;;;;;;7.99;83.84;94400.97;5032069;28;20195;-74
2022/05/03 01:51:57;;;;;;;1.98;1.35;;;;;;;7.90;85.96;94402.88;5032426;28;20212;-73
2022/05/03 01:54:41;;;;;;;3.42;1.13;;;;;;;7.87;87.49;94403.50;5031770;28;20314;-75
2022/05/03 01:57:18;;;;;;;2.15;1.75;;;;;;;7.73;87.63;94401.75;5020119;28;20196;-75
2022/05/03 01:59:54;;;;;;;4.20;1.98;;;;;;;7.75;88.07;94402.25;5032320;28;20197;-75
2022/05/03 02:02:37;;;;;;;1.35;1.15;;;;;;;7.77;87.86;94408.13;5031443;28;20220;-74
2022/05/03 02:05:07;;;;;;;3.10;1.73;;;;;;;7.66;88.39;94398.72;5031365;28;20196;-75
2022/05/03 02:07:51;;;;;;;1.50;1.40;;;;;;;7.65;88.42;94404.44;5031693;28;20211;-76
2022/05/03 02:10:31;;;;;;;2.25;1.80;;;;;;;7.62;88.86;94403.16;5029933;28;20222;-75
2022/05/03 02:13:09;;;;;;;2.92;2.22;;;;;;;7.60;89.33;94400.00;5033743;28;20196;-75
2022/05/03 02:15:39;;;;;;;2.35;1.85;;;;;;;7.55;89.58;94402.03;5031586;28;20659;-74
2022/05/03 02:18:17;;;;;;;1.42;1.30;;;;;;;7.55;89.32;94397.44;5030992;28;20670;-74
2022/05/03 02:21:16;;;;;;;2.80;1.77;;;;;;;7.45;89.17;94397.72;5044598;28;20199;-74
2022/05/03 02:23:49;;;;;;;2.33;1.85;;;;;;;7.46;90.02;94400.13;5020064;28;20208;-75
2022/05/03 02:26:28;;;;;;;2.25;1.77;;;;;;;7.47;90.22;94395.50;5018624;28;20601;-74
2022/05/03 02:28:58;;;;;;;3.05;1.90;;;;;;;7.48;89.67;94397.09;5031448;28;20258;-75
2022/05/03 02:31:36;;;;;;;2.65;1.52;;;;;;;7.46;88.62;94392.03;5031436;28;20208;-74
2022/05/03 02:34:25;;;;;;;3.95;2.17;;;;;;;7.52;88.58;94398.06;5021205;28;20563;-74
2022/05/03 02:36:59;;;;;;;4.65;2.30;;;;;;;7.53;88.88;94383.47;5025396;28;20200;-75
2022/05/03 02:39:30;;;;;;;4.70;2.17;;;;;;;7.55;88.52;94386.66;5031682;28;20197;-75
2022/05/03 02:41:59;;;;;;;4.93;3.00;;;;;;;7.54;88.37;94385.06;5030520;28;20667;-75
2022/05/03 02:44:29;;;;;;;2.30;1.85;;;;;;;7.52;88.81;94381.88;5030813;28;20268;-75
2022/05/03 02:47:05;;;;;;;2.00;1.38;;;;;;;7.44;89.71;94385.34;5030461;28;20244;-74
2022/05/03 02:49:55;;;;;;;3.05;1.90;;;;;;;7.36;90.18;94388.84;5030119;28;20713;-75
2022/05/03 02:52:29;;;;;;;2.42;2.03;;;;;;;7.38;90.22;94386.63;5019610;28;20200;-76
2022/05/03 02:55:06;;;;;;;4.38;2.22;;;;;;;7.44;89.35;94385.34;5031199;28;20284;-75
2022/05/03 02:57:46;;;;;;;2.95;2.22;;;;;;;7.45;89.38;94385.06;5030943;28;20196;-75
2022/05/03 03:03:36;;;;;;;3.90;2.25;;;;;;;7.42;89.95;94387.56;5019487;28;20671;-74
2022/05/03 03:06:05;;;;;;;2.80;2.00;;;;;;;7.37;89.33;94388.53;5025418;28;20571;-74
2022/05/03 03:08:37;;;;;;;3.63;2.22;;;;;;;7.38;89.17;94387.41;5038105;28;20279;-77
2022/05/03 03:11:05;;;;;;;1.65;1.40;;;;;;;7.36;88.40;94388.84;5037795;28;20188;-76
2022/05/03 03:13:45;;;;;;;3.40;2.40;;;;;;;7.39;89.07;94388.19;5036491;28;20208;-77
2022/05/03 03:16:14;;;;;;;3.30;2.63;;;;;;;7.39;89.38;94383.59;5037583;28;20206;-78
2022/05/03 03:18:44;;;;;;;6.18;1.77;;;;;;;7.36;89.86;94395.03;5037480;28;20196;-75
2022/05/03 03:21:14;;;;;;;4.90;2.35;;;;;;;7.41;89.70;94388.66;5036988;28;20297;-73
2022/05/03 03:23:42;;;;;;;3.33;2.30;;;;;;;7.37;89.61;94382.34;5037741;28;20258;-80
2022/05/03 03:26:10;;;;;;;1.85;1.55;;;;;;;7.41;89.30;94385.97;5051506;28;20238;-76
2022/05/03 03:28:38;;;;;;;3.70;2.20;;;;;;;7.37;89.18;94398.50;5037812;28;20627;-80
2022/05/03 03:31:08;;;;;;;3.80;1.95;;;;;;;7.41;88.93;94383.28;5037660;28;20232;-74
2022/05/03 03:33:39;;;;;;;3.88;1.85;;;;;;;7.42;88.77;94385.66;5036924;28;20703;-76
2022/05/03 03:36:08;;;;;;;2.13;1.83;;;;;;;7.44;89.35;94391.53;5037211;28;20192;-75
2022/05/03 03:38:41;;;;;;;3.42;2.20;;;;;;;7.45;88.80;94395.03;5035858;28;20301;-75
2022/05/03 03:41:09;;;;;;;1.38;1.27;;;;;;;7.46;88.45;94388.53;5026757;28;20200;-76
2022/05/03 03:43:37;;;;;;;4.25;2.47;;;;;;;7.56;89.07;94387.44;5035744;28;20231;-77
2022/05/03 03:46:04;;;;;;;4.22;2.83;;;;;;;7.57;88.15;94389.81;5022066;28;20197;-79
2022/05/03 03:48:32;;;;;;;2.60;2.35;;;;;;;7.50;88.50;94397.59;5036594;28;20236;-75
2022/05/03 03:51:00;;;;;;;3.08;2.53;;;;;;;7.59;88.61;94394.91;5036987;28;20622;-77
2022/05/03 03:53:28;;;;;;;2.50;1.73;;;;;;;7.60;88.46;94399.19;5037175;28;20216;-77
2022/05/03 03:55:58;;;;;;;1.65;1.27;;;;;;;7.64;88.07;94400.16;5037244;28;20224;-73
2022/05/03 03:58:31;;;;;;;2.42;2.10;;;;;;;7.62;87.37;94397.78;5036359;28;20711;-78
2022/05/03 04:00:59;;;;;;;3.88;2.58;;;;;;;7.67;87.82;94394.13;5037051;28;20645;-78
2022/05/03 04:03:27;;;;;;;2.40;1.58;;;;;;;7.70;87.75;94399.69;5036668;28;20197;-79
2022/05/03 04:05:54;;;;;;;3.80;1.98;;;;;;;7.76;87.42;94401.13;5036760;28;20240;-80
2022/05/03 04:08:21;;;;;;;3.42;2.03;;;;;;;7.78;87.37;94401.63;5036717;28;20207;-82
2022/05/03 04:10:49;;;;;;;2.20;1.90;;;;;;;7.80;87.34;94396.69;5037173;28;20665;-76
2022/05/03 04:13:17;;;;;;;2.70;1.83;;;;;;;7.78;86.61;94406.22;5023680;28;20204;-73
2022/05/03 04:15:44;;;;;;;3.20;1.85;;;;;;;7.90;86.96;94402.88;5036234;28;20205;-76
2022/05/03 04:18:11;;;;;;;3.50;1.83;;;;;;;7.89;86.98;94401.31;5034101;28;20216;-77
2022/05/03 04:20:39;;;;;;;1.80;1.63;;;;;;;7.94;86.36;94409.22;5032276;28;20619;-76
2022/05/03 04:23:05;;;;;;;2.63;1.95;;;;;;;7.98;87.14;94410.97;5030491;28;20197;-77
2022/05/03 04:25:33;;;;;;;2.95;1.90;;;;;;;7.97;86.75;94404.00;5032240;28;20205;-76
2022/05/03 04:28:00;;;;;;;2.47;2.25;;;;;;;8.01;87.52;94412.25;5041784;28;20295;-78
2022/05/03 04:30:28;;;;;;;5.75;2.40;;;;;;;8.00;86.94;94411.47;5036933;28;20239;-73
2022/05/03 04:32:54;;;;;;;2.08;1.48;;;;;;;7.99;86.78;94411.78;5032236;28;20203;-77
2022/05/03 04:35:21;;;;;;;2.28;1.73;;;;;;;8.00;87.36;94403.38;5031992;28;20562;-76
2022/05/03 04:37:48;;;;;;;1.38;1.23;;;;;;;8.05;87.38;94426.72;5033435;28;20214;-76
2022/05/03 04:40:15;;;;;;;2.72;1.88;;;;;;;7.99;85.07;94417.97;5030371;28;20197;-77
2022/05/03 04:42:42;;;;;;;2.00;1.30;;;;;;;8.02;86.15;94413.84;5032939;28;20598;-76
2022/05/03 04:45:09;;;;;;;1.42;1.33;;;;;;;7.97;85.58;94419.38;5031969;28;20331;-77
2022/05/03 04:47:37;;;;;;;4.13;1.17;;;;;;;8.06;85.41;94417.50;5033029;28;20211;-76
2022/05/03 04:50:06;;;;;;;1.83;1.73;;;;;;;7.98;85.77;94415.56;5033261;28;20232;-78
2022/05/03 04:52:33;;;;;;;1.27;1.17;;;;;;;8.05;85.23;94410.53;5032481;28;20303;-77
2022/05/03 04:54:59;;;;;;;3.67;1.35;;;;;;;8.07;85.13;94419.06;5032225;28;20207;-78
2022/05/03 04:57:26;;;;;;;1.60;1.35;;;;;;;8.16;83.74;94422.59;5032364;28;20196;-77
2022/05/03 04:59:53;;;;;;;2.92;1.60;;;;;;;8.16;81.44;94417.19;5032334;28;20228;-78
2022/05/03 05:02:20;;;;;;;2.30;1.88;;;;;;;8.23;81.62;94422.88;5032946;28;20204;-76
2022/05/03 05:04:48;;;;;;;3.05;1.83;;;;;;;8.24;82.20;94419.06;5032655;28;20204;-78
2022/05/03 05:07:15;;;;;;;2.20;1.23;;;;;;;8.29;82.37;94421.63;5032422;28;20200;-78
2022/05/03 05:10:23;;;;;;;1.67;1.33;;;;;;;8.31;82.58;94414.00;5032502;28;20232;-76
2022/05/03 05:12:31;;;;;;;2.13;1.50;;;;;;;8.39;82.39;94420.53;5032179;28;20260;-77
2022/05/03 05:14:58;;;;;;;2.95;1.75;;;;;;;8.40;81.74;94417.53;5032553;28;20723;-77
2022/05/03 05:17:25;;;;;;;4.55;2.08;;;;;;;8.53;82.66;94424.66;5032389;28;20224;-79
2022/05/03 05:19:53;;;;;;;1.50;1.17;;;;;;;8.44;81.27;94418.47;5032380;28;20204;-78
2022/05/03 05:22:20;;;;;;;1.60;0.90;;;;;;;8.55;81.21;94417.03;5032304;28;20224;-78
2022/05/03 05:24:46;;;;;;;1.80;1.15;;;;;;;8.59;79.94;94413.69;5033404;28;20197;-78
2022/05/03 05:27:13;;;;;;;2.33;2.13;;;;;;;8.71;80.28;94420.03;5032022;28;20197;-78
2022/05/03 05:29:40;;;;;;;1.77;1.45;;;;;;;8.69;77.88;94418.75;5031332;28;20231;-77
2022/05/03 05:32:07;;;;;;;7.13;1.73;;;;;;;8.76;79.19;94427.16;5032369;28;20224;-72
2022/05/03 05:34:34;;;;;;;2.40;1.50;;;;;;;8.82;78.70;94428.59;5032805;28;20291;-77
2022/05/03 05:37:02;;;;;;;1.27;1.05;;;;;;;8.86;78.99;94430.34;5031828;28;20192;-78
2022/05/03 05:39:29;;;;;;;1.85;1.50;;;;;;;8.87;78.14;94420.31;5030816;28;20200;-76
2022/05/03 05:41:56;;;;;;;2.50;1.92;;;;;;;9.00;77.99;94413.94;5031221;28;20213;-70
2022/05/03 05:44:23;;;;;;;1.42;1.10;;;;;;;9.05;77.03;94421.84;5031915;28;20236;-78
2022/05/03 05:46:52;;;;;;;1.17;1.05;;;;;;;9.11;76.95;94420.56;5031882;28;20208;-79
2022/05/03 05:49:19;;;;;;;1.08;0.93;;;;;;;9.16;75.81;94417.66;5032007;28;20228;-75
2022/05/03 05:51:46;;;;;;;1.33;1.05;;;;;;;9.13;72.78;94418.34;5032350;28;20572;-80
2022/05/03 05:54:13;;;;;;;2.47;1.33;;;;;;;9.25;73.56;94426.56;5032373;28;20204;-79
2022/05/03 05:56:41;;;;;;;2.13;1.52;;;;;;;9.46;73.56;94425.81;5044950;28;20236;-84
2022/05/03 05:59:08;;;;;;;1.05;0.90;;;;;;;9.72;73.61;94422.97;5029986;28;20242;-80
2022/05/03 06:01:38;;;;;;;0.75;0.60;;;;;;;10.11;70.24;94433.44;5031684;28;20204;-82
2022/05/03 06:04:05;;;;;;;1.42;1.17;;;;;;;10.18;70.59;94427.47;5032158;28;20291;-79
2022/05/03 06:06:32;;;;;;;1.30;1.08;;;;;;;10.19;69.75;94432.59;5031600;28;20354;-80
2022/05/03 06:09:00;;;;;;;2.17;1.35;;;;;;;10.29;69.81;94431.41;5031399;28;20676;-78
2022/05/03 06:11:29;;;;;;;3.83;1.58;;;;;;;10.32;69.26;94431.53;5031511;28;20207;-74
2022/05/03 06:13:56;;;;;;;2.13;1.33;;;;;;;10.40;69.71;94443.41;5031426;28;20196;-75
2022/05/03 06:16:23;;;;;;;1.35;1.08;;;;;;;10.26;68.14;94456.41;5030752;28;20212;-77
2022/05/03 06:18:49;;;;;;;2.45;1.17;;;;;;;10.27;71.40;94455.28;5031201;28;20220;-75
2022/05/03 06:21:16;;;;;;;5.50;2.33;;;;;;;10.40;71.10;94456.94;5031278;28;20305;-76
2022/05/03 06:23:43;;;;;;;1.50;1.02;;;;;;;10.57;70.78;94450.59;5032410;28;20612;-77
2022/05/03 06:26:11;;;;;;;1.08;0.98;;;;;;;10.32;69.11;94453.19;5031264;28;20208;-80
2022/05/03 06:28:40;;;;;;;1.23;1.02;;;;;;;10.43;69.56;94452.78;5030979;28;20200;-77
2022/05/03 06:31:08;;;;;;;2.42;1.30;;;;;;;10.36;68.88;94458.75;5018344;28;20367;-77
2022/05/03 06:33:35;;;;;;;12.88;1.63;;;;;;;10.35;68.38;94446.34;5031359;28;20291;-77
2022/05/03 06:36:02;;;;;;;2.63;1.35;;;;;;;10.38;69.35;94461.94;5031326;28;20211;-74
2022/05/03 06:38:29;;;;;;;0.88;0.88;;;;;;;10.45;66.91;94462.19;5028986;28;20209;-72
2022/05/03 06:41:00;;;;;;;1.92;1.35;;;;;;;10.53;67.30;94463.22;5026394;28;20197;-76
2022/05/03 06:43:27;;;;;;;1.65;1.00;;;;;;;10.42;68.39;94468.25;5030372;28;20246;-81
2022/05/03 06:45:56;;;;;;;2.53;1.30;;;;;;;10.30;67.99;94470.88;5029103;28;20546;-75
2022/05/03 06:48:23;;;;;;;2.72;1.52;;;;;;;10.68;68.95;94465.31;5030344;28;20208;-81
2022/05/03 06:50:49;;;;;;;2.08;1.40;;;;;;;10.96;67.15;94477.19;5030504;28;20243;-77
2022/05/03 06:53:16;;;;;;;3.20;2.42;;;;;;;11.06;67.38;94476.00;5031006;28;20697;-77
2022/05/03 06:55:43;;;;;;;1.55;1.27;;;;;;;10.97;67.19;94483.41;5026238;28;20209;-78
2022/05/03 06:58:10;;;;;;;3.65;1.60;;;;;;;11.23;67.83;94469.59;5030555;28;20217;-77
2022/05/03 07:00:37;;;;;;;1.25;0.88;;;;;;;11.24;66.24;94471.97;5030265;28;20671;-71
2022/05/03 07:03:06;;;;;;;2.63;1.38;;;;;;;11.06;66.26;94473.28;5030852;28;20266;-76
2022/05/03 07:05:32;;;;;;;1.95;1.50;;;;;;;10.80;67.02;94478.13;5030908;28;20205;-73
2022/05/03 07:07:59;;;;;;;4.47;1.58;;;;;;;10.75;67.57;94472.94;5030652;28;20204;-77
2022/05/03 07:10:27;;;;;;;2.22;1.27;;;;;;;10.72;67.97;94487.94;5030949;28;20228;-78
2022/05/03 07:12:54;;;;;;;1.38;0.82;;;;;;;10.73;68.09;94483.31;5030532;28;20204;-76
2022/05/03 07:15:21;;;;;;;1.55;1.30;;;;;;;10.57;69.07;94475.78;5030207;28;20613;-80
2022/05/03 07:23:18;;;;;;;1.80;1.13;;;;;;;10.30;69.98;94476.31;5019739;28;20342;-75
2022/05/03 07:25:46;;;;;;;3.85;2.22;;;;;;;10.54;70.43;94472.94;5048341;28;20215;-73
2022/05/03 07:28:13;;;;;;;2.28;2.08;;;;;;;10.61;69.64;94471.28;5040001;28;20212;-78
2022/05/03 07:30:39;;;;;;;3.42;2.85;;;;;;;10.73;70.08;94478.69;5029550;28;20232;-83
2022/05/03 07:33:07;;;;;;;4.07;2.65;;;;;;;11.04;69.78;94478.25;5030350;28;20208;-73
2022/05/03 07:35:35;;;;;;;2.67;1.77;;;;;;;10.73;69.22;94483.31;5030496;28;20239;-77
2022/05/03 07:38:02;;;;;;;2.90;2.03;;;;;;;10.67;70.03;94490.81;5030581;28;20200;-76
2022/05/03 07:40:29;;;;;;;2.88;2.10;;;;;;;10.65;70.14;94493.91;5030289;28;20205;-80
2022/05/03 07:42:56;;;;;;;2.13;1.25;;;;;;;10.68;68.59;94492.41;5030242;28;20219;-75
2022/05/03 07:45:23;;;;;;;1.05;0.95;;;;;;;10.91;67.24;94484.75;5029881;28;20665;-76
2022/05/03 07:47:50;;;;;;;2.35;1.60;;;;;;;11.08;66.88;94494.63;5030506;28;20209;-77
2022/05/03 07:50:17;;;;;;;1.38;1.27;;;;;;;10.72;67.59;94498.78;5043488;28;20244;-71
2022/05/03 07:52:45;;;;;;;1.27;1.17;;;;;;;10.84;67.87;94506.94;5031095;28;20208;-78
2022/05/03 07:55:12;;;;;;;1.98;1.42;;;;;;;10.82;68.40;94497.56;5034061;28;20215;-77
2022/05/03 07:57:39;;;;;;;2.78;1.35;;;;;;;10.62;67.67;94499.97;5034125;28;20232;-80
2022/05/03 08:00:07;;;;;;;2.70;1.77;;;;;;;10.31;69.38;94499.53;5033199;28;20212;-72
2022/05/03 08:02:34;;;;;;;2.75;1.40;;;;;;;10.22;69.87;94512.34;5034081;28;20240;-81
2022/05/03 08:05:01;;;;;;;2.22;1.45;;;;;;;10.12;72.12;94512.69;5033477;28;20598;-77
2022/05/03 08:07:28;;;;;;;1.33;1.00;;;;;;;10.12;73.14;94507.25;5033524;28;20363;-73
2022/05/03 08:09:56;;;;;;;4.22;1.55;;;;;;;10.23;72.72;94516.66;5034153;28;20224;-78
2022/05/03 08:12:23;;;;;;;2.85;1.67;;;;;;;10.19;73.53;94515.72;5033556;28;20694;-76
2022/05/03 08:14:51;;;;;;;3.60;2.13;;;;;;;10.47;73.38;94516.81;5033716;28;20207;-77
2022/05/03 08:17:18;;;;;;;2.25;1.70;;;;;;;10.45;73.48;94516.34;5033348;28;20227;-76
2022/05/03 08:19:46;;;;;;;1.73;1.35;;;;;;;10.79;72.92;94515.28;5033469;28;20754;-74
2022/05/03 08:22:13;;;;;;;1.20;1.10;;;;;;;10.76;72.38;94515.16;5033297;28;20690;-74
2022/05/03 08:24:39;;;;;;;1.55;1.45;;;;;;;10.68;73.24;94519.50;5034116;28;20250;-77
2022/05/03 08:27:08;;;;;;;1.77;1.48;;;;;;;10.69;73.83;94518.38;5033303;28;20238;-75
2022/05/03 08:29:35;;;;;;;1.88;1.67;;;;;;;10.63;73.99;94517.81;5029320;28;20212;-76
2022/05/03 08:32:03;;;;;;;2.22;1.52;;;;;;;10.62;74.18;94527.06;5032836;28;20275;-79
2022/05/03 08:34:30;;;;;;;2.17;1.77;;;;;;;10.65;73.82;94515.56;5033251;28;20205;-75
2022/05/03 08:42:27;;;;;;;2.17;1.48;;;;;;;10.95;73.07;94529.81;5019748;28;20666;-78
2022/05/03 08:44:56;;;;;;;3.67;1.00;;;;;;;11.21;71.63;94523.34;5028693;28;20234;-77
2022/05/03 08:47:27;;;;;;;1.67;1.25;;;;;;;11.46;71.20;94524.25;5033133;28;20236;-75
2022/05/03 08:50:00;;;;;;;1.70;1.60;;;;;;;11.82;69.62;94510.75;5032709;28;20220;-75
2022/05/03 08:52:29;;;;;;;1.23;1.13;;;;;;;11.46;68.19;94535.09;5024973;28;20228;-79
2022/05/03 08:54:57;;;;;;;3.33;1.50;;;;;;;11.26;69.14;94526.66;5030035;28;20200;-78
2022/05/03 08:57:24;;;;;;;1.90;1.38;;;;;;;11.33;68.28;94529.63;5031505;28;20231;-80
2022/05/03 08:59:53;;;;;;;1.30;1.20;;;;;;;11.54;69.11;94528.78;5031553;28;20207;-85
2022/05/03 09:02:20;;;;;;;2.78;2.33;;;;;;;11.21;69.25;94526.06;5032551;28;20227;-82
2022/05/03 09:04:48;;;;;;;2.45;2.08;;;;;;;11.46;68.85;94532.38;5030538;28;20536;-76
2022/05/03 09:07:20;;;;;;;3.45;1.65;;;;;;;11.68;68.95;94521.91;5027949;28;20207;-78
2022/05/03 09:09:48;;;;;;;0.98;0.80;;;;;;;12.26;65.76;94527.28;5032649;28;20200;-75
2022/05/03 09:12:26;;;;;;;1.10;1.00;;;;;;;11.75;66.26;94532.22;5032268;28;20205;-75
2022/05/03 09:14:57;;;;;;;1.13;1.02;;;;;;;11.99;65.67;94518.69;5020383;28;20292;-75
2022/05/03 09:17:38;;;;;;;1.52;1.30;;;;;;;12.41;65.16;94529.31;5028863;28;20220;-75
2022/05/03 09:25:49;;;;;;;3.20;2.00;;;;;;;13.13;62.10;94522.09;4982255;28;20200;-75
2022/05/03 09:28:17;;;;;;;2.85;1.95;;;;;;;13.71;60.65;94514.38;5029229;28;20215;-75
2022/05/03 09:30:50;;;;;;;2.08;1.88;;;;;;;13.66;60.17;94517.38;5029220;28;20236;-76
2022/05/03 09:33:19;;;;;;;2.13;1.83;;;;;;;12.85;61.79;94515.88;5024389;28;20242;-75
2022/05/03 09:35:46;;;;;;;2.25;1.80;;;;;;;12.58;63.15;94518.19;5029716;28;20188;-74
2022/05/03 09:38:13;;;;;;;2.72;1.98;;;;;;;12.51;63.43;94520.69;5031249;28;20212;-74
2022/05/03 09:40:41;;;;;;;2.55;1.90;;;;;;;12.47;63.32;94511.63;5031188;28;20644;-73
2022/05/03 09:43:09;;;;;;;4.45;1.00;;;;;;;12.68;61.97;94515.00;5028988;28;20196;-75
2022/05/03 09:45:36;;;;;;;3.70;1.70;;;;;;;12.94;61.65;94508.38;5032100;28;20297;-78
2022/05/03 09:48:06;;;;;;;1.20;1.10;;;;;;;12.82;61.38;94509.22;5030380;28;20293;-76
2022/05/03 09:50:44;;;;;;;5.85;1.48;;;;;;;13.05;60.81;94509.47;5016867;28;20607;-75
2022/05/03 09:53:14;;;;;;;2.70;1.90;;;;;;;13.07;60.49;94496.31;5030457;28;20284;-74
2022/05/03 09:55:42;;;;;;;2.28;1.70;;;;;;;13.22;60.43;94503.75;5031516;28;20659;-77
2022/05/03 09:58:10;;;;;;;2.05;1.65;;;;;;;13.29;58.88;94503.16;5030525;28;20304;-78
2022/05/03 10:00:41;;;;;;;1.95;1.58;;;;;;;13.02;60.84;94493.81;5032024;28;20204;-80
2022/05/03 10:03:10;;;;;;;2.92;2.13;;;;;;;12.63;61.51;94498.94;5022866;28;20261;-78
2022/05/03 10:05:38;;;;;;;2.95;2.20;;;;;;;12.32;63.09;94504.97;5040738;28;20291;-73
2022/05/03 10:08:07;;;;;;;2.10;1.80;;;;;;;12.22;62.73;94507.38;5035247;28;20207;-69
2022/05/03 10:10:34;;;;;;;2.58;1.90;;;;;;;11.94;63.82;94510.75;5040534;28;20301;-73
2022/05/03 10:13:02;;;;;;;2.40;1.88;;;;;;;11.79;64.38;94513.34;5020664;28;20204;-80
2022/05/03 10:21:14;;;;;;;2.80;1.73;;;;;;;11.68;62.86;94513.75;5030231;28;20227;-76
2022/05/03 10:23:41;;;;;;;2.72;1.60;;;;;;;11.81;62.56;94505.66;5031027;28;20262;-72
2022/05/03 10:26:10;;;;;;;3.60;1.73;;;;;;;11.71;62.82;94502.25;5032026;28;20197;-80
2022/05/03 10:29:07;;;;;;;4.75;1.70;;;;;;;11.84;61.97;94503.06;5030484;28;20254;-82
2022/05/03 10:31:55;;;;;;;1.88;1.48;;;;;;;11.95;61.61;94496.06;5019262;28;20232;-78
2022/05/03 10:34:53;;;;;;;2.08;1.55;;;;;;;11.73;61.37;94499.19;5017807;28;20695;-81
2022/05/03 10:37:43;;;;;;;1.42;1.02;;;;;;;11.63;62.08;94502.31;5031061;28;20200;-77
2022/05/03 10:40:14;;;;;;;3.45;1.30;;;;;;;11.84;61.32;94499.56;5017299;28;20322;-78
2022/05/03 10:42:41;;;;;;;3.58;1.17;;;;;;;12.32;59.88;94488.69;5027552;28;20192;-78
2022/05/03 10:45:11;;;;;;;1.13;1.00;;;;;;;12.86;58.44;94496.47;5030631;28;20770;-79
2022/05/03 10:47:53;;;;;;;1.13;1.02;;;;;;;13.31;55.62;94485.34;5030792;28;20210;-79
2022/05/03 10:50:30;;;;;;;1.65;1.20;;;;;;;13.21;56.01;94485.84;5030673;28;20303;-78
2022/05/03 10:53:22;;;;;;;3.17;1.85;;;;;;;13.08;56.95;94492.47;5028987;28;20647;-77
2022/05/03 10:56:17;;;;;;;1.50;1.30;;;;;;;13.51;56.78;94495.22;5006742;28;20211;-79
2022/05/03 10:59:14;;;;;;;1.23;1.10;;;;;;;14.36;53.50;94485.59;5017884;28;20197;-79
2022/05/03 11:02:06;;;;;;;1.20;0.95;;;;;;;14.14;54.34;94489.78;5027443;28;20187;-78
2022/05/03 11:04:35;;;;;;;1.35;1.23;;;;;;;13.51;54.90;94478.91;5025622;28;20687;-75
2022/05/03 11:07:05;;;;;;;1.88;1.10;;;;;;;13.42;55.94;94491.84;5029885;28;20625;-78
2022/05/03 11:09:33;;;;;;;2.35;1.58;;;;;;;13.27;56.22;94483.66;5031087;28;20227;-75
2022/05/03 11:12:07;;;;;;;1.90;1.50;;;;;;;13.38;57.71;94484.75;5024166;28;20225;-76
2022/05/03 11:14:51;;;;;;;2.65;1.45;;;;;;;13.80;55.61;94479.63;5027427;28;20217;-76
2022/05/03 11:17:19;;;;;;;4.68;1.40;;;;;;;14.21;55.11;94472.81;5030489;28;20534;-78
2022/05/03 11:19:50;;;;;;;2.83;2.00;;;;;;;14.37;55.56;94459.16;5030286;28;20275;-78
2022/05/03 11:22:20;;;;;;;2.03;1.58;;;;;;;14.10;53.97;94466.31;5024926;28;20284;-74
2022/05/03 11:24:49;;;;;;;2.17;1.65;;;;;;;14.50;53.98;94455.19;5032371;28;20284;-75
2022/05/03 11:27:18;;;;;;;3.67;1.80;;;;;;;14.47;53.08;94458.66;5044324;28;20203;-73
2022/05/03 11:29:46;;;;;;;3.85;1.85;;;;;;;14.52;54.16;94466.53;5034574;28;20301;-75
2022/05/03 11:32:15;;;;;;;1.88;1.67;;;;;;;14.20;52.69;94466.59;5033561;28;20232;-73
2022/05/03 11:34:42;;;;;;;1.63;1.40;;;;;;;13.82;53.23;94469.16;5033732;28;20608;-72
2022/05/03 11:37:10;;;;;;;1.88;1.65;;;;;;;13.91;53.44;94468.97;5033405;28;20200;-78
2022/05/03 11:39:39;;;;;;;2.30;1.85;;;;;;;13.61;55.56;94471.34;5024533;28;20252;-75
2022/05/03 11:42:09;;;;;;;2.88;1.67;;;;;;;13.96;54.60;94465.97;5031240;28;20200;-77
2022/05/03 11:44:41;;;;;;;4.03;1.40;;;;;;;14.07;53.81;94467.84;5033993;28;20235;-77
2022/05/03 11:47:10;;;;;;;3.22;1.90;;;;;;;14.80;53.61;94461.69;5032352;28;20267;-72
2022/05/03 11:49:37;;;;;;;1.75;1.33;;;;;;;15.13;51.27;94463.91;5033532;28;20228;-73
2022/05/03 11:57:40;;;;;;;2.22;1.80;;;;;;;15.04;51.05;94457.09;5033454;28;20662;-76
2022/05/03 12:00:10;;;;;;;2.83;1.73;;;;;;;14.55;51.94;94454.91;5033802;28;20259;-74
2022/05/03 12:02:39;;;;;;;2.83;2.30;;;;;;;14.44;53.57;94456.63;5033345;28;20212;-74
2022/05/03 12:05:18;;;;;;;1.60;1.50;;;;;;;13.72;54.02;94458.78;5033501;28;20216;-72
2022/05/03 12:07:47;;;;;;;17.50;10.00;;;;;;;13.27;56.71;94462.69;5033616;28;20199;-76
2022/05/03 12:10:22;;;;;;;2.88;2.03;;;;;;;13.00;59.30;94458.03;5033227;28;20345;-76
2022/05/03 12:13:05;;;;;;;3.03;2.10;;;;;;;12.95;59.86;94466.44;5033455;28;20223;-78
2022/05/03 12:15:33;;;;;;;2.95;1.70;;;;;;;12.74;59.62;94467.41;5033798;28;20220;-74
2022/05/03 12:18:02;;;;;;;2.67;1.55;;;;;;;12.48;59.69;94475.19;5033429;28;20224;-76
2022/05/03 12:20:41;;;;;;;2.20;1.60;;;;;;;12.47;59.80;94473.59;5033738;28;20223;-73
2022/05/03 12:23:19;;;;;;;1.98;1.45;;;;;;;12.35;60.98;94465.47;5020972;28;20203;-74
2022/05/03 12:25:49;;;;;;;2.78;1.60;;;;;;;12.19;59.13;94467.31;5035649;28;20196;-74
2022/05/03 12:28:17;;;;;;;2.92;1.40;;;;;;;11.91;59.43;94470.72;5033595;28;20227;-75
2022/05/03 12:30:44;;;;;;;1.52;1.33;;;;;;;11.72;59.71;94475.91;5047137;28;20211;-75